createdAt,value
2022-10-29T00:00:06.708Z,89.02
2022-10-29T00:02:35.591Z,89.09
2022-10-29T00:05:03.079Z,88.86
2022-10-29T00:07:30.523Z,88.69
2022-10-29T00:09:57.937Z,88.74
2022-10-29T00:12:25.368Z,88.74
2022-10-29T00:14:52.780Z,88.65
2022-10-29T00:17:20.207Z,88.62
2022-10-29T00:19:49.033Z,88.56
2022-10-29T00:22:16.491Z,88.86
2022-10-29T00:24:43.895Z,88.73
2022-10-29T00:27:11.300Z,88.52
2022-10-29T00:29:38.746Z,88.36
2022-10-29T00:32:06.324Z,88.55
2022-10-29T00:34:33.778Z,88.60
2022-10-29T00:37:02.551Z,88.86
2022-10-29T00:39:30.382Z,88.72
2022-10-29T00:41:57.794Z,88.75
2022-10-29T00:44:35.187Z,88.84
2022-10-29T00:47:24.915Z,88.77
2022-10-29T00:49:55.298Z,89.20
2022-10-29T00:52:28.579Z,89.56
2022-10-29T00:54:56.761Z,89.87
2022-10-29T00:57:28.083Z,89.93
2022-10-29T00:59:56.085Z,89.79
2022-10-29T01:02:24.841Z,89.73
2022-10-29T01:04:53.850Z,89.59
2022-10-29T01:07:22.159Z,89.76
2022-10-29T01:09:51.451Z,89.94
2022-10-29T01:12:49.246Z,89.99
2022-10-29T01:15:24.477Z,90.44
2022-10-29T01:18:05.975Z,90.57
2022-10-29T01:20:52.032Z,90.76
2022-10-29T01:23:38.420Z,90.92
2022-10-29T01:26:40.398Z,91.16
2022-10-29T01:29:22.751Z,90.82
2022-10-29T01:31:56.908Z,91.36
2022-10-29T01:34:29.740Z,91.25
2022-10-29T01:37:01.654Z,91.63
2022-10-29T01:39:37.829Z,91.54
2022-10-29T01:42:12.651Z,91.75
2022-10-29T01:44:49.606Z,91.98
2022-10-29T01:47:20.233Z,92.13
2022-10-29T01:49:51.537Z,92.21
2022-10-29T01:52:22.009Z,92.04
2022-10-29T01:54:49.896Z,91.84
2022-10-29T01:57:28.846Z,91.61
2022-10-29T02:00:00.957Z,91.69
2022-10-29T02:02:48.124Z,91.75
2022-10-29T02:05:24.891Z,91.93
2022-10-29T02:07:58.349Z,91.75
2022-10-29T02:10:32.416Z,91.68
2022-10-29T02:13:01.058Z,91.35
2022-10-29T02:15:35.167Z,91.25
2022-10-29T02:18:06.383Z,91.19
2022-10-29T02:20:34.903Z,91.13
2022-10-29T02:23:02.641Z,91.60
2022-10-29T02:25:30.153Z,91.92
2022-10-29T02:27:57.987Z,91.91
2022-10-29T02:30:25.605Z,92.25
2022-10-29T02:32:53.182Z,92.46
2022-10-29T02:35:22.252Z,92.63
2022-10-29T02:37:49.848Z,92.68
2022-10-29T02:40:17.412Z,92.80
2022-10-29T02:42:44.865Z,93.52
2022-10-29T02:45:12.292Z,93.14
2022-10-29T02:47:39.697Z,93.34
2022-10-29T02:50:08.539Z,93.83
2022-10-29T02:52:37.295Z,93.76
2022-10-29T02:55:05.108Z,93.36
2022-10-29T02:57:32.604Z,93.62
2022-10-29T03:00:00.012Z,93.30
2022-10-29T03:02:27.515Z,93.27
2022-10-29T03:04:54.943Z,93.75
2022-10-29T03:07:22.374Z,94.29
2022-10-29T03:09:51.139Z,94.58
2022-10-29T03:12:18.714Z,94.63
2022-10-29T03:14:46.182Z,94.59
2022-10-29T03:17:13.665Z,94.45
2022-10-29T03:19:41.069Z,94.31
2022-10-29T03:22:08.529Z,94.36
2022-10-29T03:24:35.941Z,94.29
2022-10-29T03:27:04.853Z,94.12
2022-10-29T03:29:32.281Z,94.48
2022-10-29T03:31:59.762Z,95.21
2022-10-29T03:34:27.226Z,95.38
2022-10-29T03:36:54.628Z,95.52
2022-10-29T03:39:22.056Z,95.26
2022-10-29T03:41:49.473Z,95.42
2022-10-29T03:44:18.193Z,95.43
2022-10-29T03:46:45.614Z,95.56
2022-10-29T03:49:13.045Z,95.21
2022-10-29T03:51:40.511Z,95.71
2022-10-29T03:54:07.922Z,95.83
2022-10-29T03:56:35.293Z,95.69
2022-10-29T03:59:02.769Z,95.32
2022-10-29T04:01:31.724Z,95.07
2022-10-29T04:03:59.249Z,95.44
2022-10-29T04:06:26.662Z,95.62
2022-10-29T04:08:54.087Z,95.72
2022-10-29T04:11:22.328Z,95.60
2022-10-29T04:13:53.054Z,95.01
2022-10-29T04:16:20.830Z,95.01
2022-10-29T04:18:49.736Z,95.47
2022-10-29T04:29:40.222Z,96.08
2022-10-29T04:32:07.641Z,96.27
2022-10-29T04:34:36.401Z,96.58
2022-10-29T04:37:03.814Z,96.92
2022-10-29T04:39:31.219Z,97.37
2022-10-29T04:41:58.693Z,97.84
2022-10-29T04:44:26.080Z,98.27
2022-10-29T04:46:53.479Z,98.77
2022-10-29T04:49:20.915Z,99.02
2022-10-29T04:51:49.718Z,99.26
2022-10-29T04:54:17.119Z,99.28
2022-10-29T04:56:44.676Z,99.31
2022-10-29T04:59:12.165Z,98.98
2022-10-29T05:01:39.708Z,98.70
2022-10-29T05:04:07.481Z,98.92
2022-10-29T05:06:34.886Z,98.54
2022-10-29T05:09:03.882Z,98.21
2022-10-29T05:11:31.289Z,97.83
2022-10-29T05:13:58.710Z,98.02
2022-10-29T05:16:26.106Z,98.18
2022-10-29T05:18:53.525Z,98.23
2022-10-29T05:21:20.920Z,98.62
2022-10-29T05:23:48.343Z,98.12
2022-10-29T05:26:17.116Z,98.23
2022-10-29T05:28:44.522Z,98.31
2022-10-29T05:31:11.930Z,98.05
2022-10-29T05:33:39.360Z,98.13
2022-10-29T05:36:07.045Z,98.03
2022-10-29T05:38:34.460Z,97.92
2022-10-29T05:41:02.149Z,98.16
2022-10-29T05:43:30.904Z,98.56
2022-10-29T05:45:58.312Z,98.33
2022-10-29T05:48:25.715Z,98.74
2022-10-29T05:50:53.119Z,98.56
2022-10-29T05:53:20.525Z,98.87
2022-10-29T05:55:47.937Z,98.85
2022-10-29T05:58:15.492Z,98.67
2022-10-29T06:00:46.338Z,98.88
2022-10-29T06:03:15.716Z,99.03
2022-10-29T06:05:43.767Z,99.06
2022-10-29T06:08:11.215Z,99.17
2022-10-29T06:10:38.723Z,98.69
2022-10-29T06:13:11.031Z,98.75
2022-10-29T06:15:38.426Z,98.15
2022-10-29T06:18:07.486Z,97.76
2022-10-29T06:20:34.961Z,97.75
2022-10-29T06:23:02.444Z,97.32
2022-10-29T06:25:30.076Z,97.31
2022-10-29T06:28:01.775Z,96.97
2022-10-29T06:30:30.007Z,97.08
2022-10-29T06:32:57.846Z,97.02
2022-10-29T06:35:27.467Z,96.87
2022-10-29T06:37:55.386Z,96.29
2022-10-29T06:40:23.432Z,96.32
2022-10-29T06:42:50.867Z,95.91
2022-10-29T06:45:18.435Z,95.73
2022-10-29T06:47:46.555Z,95.73
2022-10-29T06:50:14.570Z,95.75
2022-10-29T06:52:43.850Z,95.53
2022-10-29T06:55:11.293Z,95.33
2022-10-29T06:57:38.702Z,94.76
2022-10-29T07:00:08.672Z,95.11
2022-10-29T07:02:36.297Z,94.72
2022-10-29T07:05:03.750Z,94.80
2022-10-29T07:07:31.149Z,94.53
2022-10-29T07:09:59.927Z,94.30
2022-10-29T07:12:27.311Z,94.22
2022-10-29T07:14:54.680Z,93.87
2022-10-29T07:17:22.060Z,94.11
2022-10-29T07:19:49.493Z,93.87
2022-10-29T07:22:16.894Z,93.55
2022-10-29T07:24:44.282Z,93.28
2022-10-29T07:27:13.107Z,93.50
2022-10-29T07:29:40.561Z,93.66
2022-10-29T07:32:08.002Z,93.67
2022-10-29T07:34:35.420Z,93.19
2022-10-29T07:37:02.843Z,92.60
2022-10-29T07:42:02.675Z,92.15
2022-10-29T07:44:31.423Z,91.70
2022-10-29T07:46:59.153Z,91.13
2022-10-29T07:49:26.550Z,90.56
2022-10-29T07:51:53.940Z,90.59
2022-10-29T07:54:21.385Z,90.23
2022-10-29T07:56:48.791Z,89.52
2022-10-29T07:59:17.693Z,89.14
2022-10-29T08:01:46.785Z,89.08
2022-10-29T08:04:14.343Z,88.76
2022-10-29T08:06:41.998Z,88.39
2022-10-29T08:09:09.400Z,87.89
2022-10-29T08:11:36.905Z,87.29
2022-10-29T08:14:04.418Z,87.15
2022-10-29T08:16:31.841Z,87.04
2022-10-29T08:19:01.313Z,86.38
2022-10-29T08:21:28.804Z,86.64
2022-10-29T08:23:56.864Z,86.63
2022-10-29T08:26:24.279Z,86.45
2022-10-29T08:28:51.693Z,86.15
2022-10-29T08:31:19.386Z,85.54
2022-10-29T08:33:48.749Z,85.01
2022-10-29T08:36:17.478Z,84.61
2022-10-29T08:38:44.885Z,84.22
2022-10-29T08:41:32.233Z,83.15
2022-10-29T08:44:46.908Z,82.62
2022-10-29T08:47:18.944Z,82.19
2022-10-29T08:49:51.679Z,81.75
2022-10-29T08:52:25.197Z,81.71
2022-10-29T08:55:01.020Z,81.30
2022-10-29T08:57:32.839Z,81.06
2022-10-29T09:00:05.757Z,81.08
2022-10-29T09:02:33.222Z,80.53
2022-10-29T09:05:02.448Z,80.35
2022-10-29T09:08:01.200Z,80.08
2022-10-29T09:10:34.203Z,79.70
2022-10-29T09:13:21.088Z,79.09
2022-10-29T09:16:02.157Z,79.61
2022-10-29T09:18:44.699Z,79.50
2022-10-29T09:21:26.459Z,79.60
2022-10-29T09:24:08.599Z,79.87
2022-10-29T09:26:49.415Z,80.24
2022-10-29T09:29:35.667Z,78.71
2022-10-29T09:32:06.493Z,78.74
2022-10-29T09:34:40.705Z,78.26
2022-10-29T09:37:14.818Z,78.70
2022-10-29T09:39:47.321Z,78.00
2022-10-29T09:42:19.902Z,78.06
2022-10-29T09:44:53.490Z,77.57
2022-10-29T09:47:33.860Z,76.92
2022-10-29T09:50:11.340Z,76.57
2022-10-29T09:52:41.831Z,76.57
2022-10-29T09:55:22.433Z,76.30
2022-10-29T09:57:50.748Z,75.87
2022-10-29T10:00:22.212Z,74.86
2022-10-29T10:02:55.776Z,75.14
2022-10-29T10:05:27.386Z,75.28
2022-10-29T10:08:10.685Z,75.09
2022-10-29T10:10:52.614Z,73.83
2022-10-29T10:13:23.171Z,73.75
2022-10-29T10:15:56.187Z,74.11
2022-10-29T10:18:25.592Z,73.43
2022-10-29T10:21:05.871Z,73.14
2022-10-29T10:23:45.545Z,73.14
2022-10-29T10:29:16.128Z,73.77
2022-10-29T10:31:45.096Z,73.02
2022-10-29T10:34:18.273Z,73.00
2022-10-29T10:36:49.694Z,73.57
2022-10-29T10:39:30.823Z,72.97
2022-10-29T10:42:01.321Z,72.68
2022-10-29T10:44:30.430Z,72.48
2022-10-29T10:47:05.511Z,72.42
2022-10-29T10:49:35.651Z,72.46
2022-10-29T10:52:06.461Z,71.82
2022-10-29T10:54:38.000Z,72.14
2022-10-29T10:57:20.588Z,71.34
2022-10-29T10:59:56.781Z,71.12
2022-10-29T11:02:34.406Z,70.58
2022-10-29T11:05:12.988Z,70.82
2022-10-29T11:07:44.188Z,70.64
2022-10-29T11:10:14.334Z,70.43
2022-10-29T11:12:45.694Z,69.70
2022-10-29T11:15:18.993Z,68.93
2022-10-29T11:17:54.253Z,68.42
2022-10-29T11:20:27.411Z,67.65
2022-10-29T11:23:05.958Z,67.22
2022-10-29T11:25:40.774Z,65.78
2022-10-29T11:28:19.870Z,66.25
2022-10-29T11:30:52.492Z,65.03
2022-10-29T11:33:25.302Z,65.50
2022-10-29T11:36:01.429Z,64.90
2022-10-29T11:38:37.172Z,65.06
2022-10-29T11:41:11.011Z,63.86
2022-10-29T11:43:38.429Z,63.04
2022-10-29T11:46:15.063Z,62.80
2022-10-29T11:48:56.252Z,62.38
2022-10-29T11:51:32.094Z,61.29
2022-10-29T11:54:03.404Z,62.40
2022-10-29T11:56:49.458Z,63.07
2022-10-29T11:59:26.935Z,62.79
2022-10-29T12:02:01.357Z,63.79
2022-10-29T12:04:33.628Z,64.07
2022-10-29T12:07:12.905Z,63.82
2022-10-29T12:09:55.307Z,64.17
2022-10-29T12:12:26.488Z,64.11
2022-10-29T12:15:02.289Z,62.66
2022-10-29T12:17:38.250Z,61.94
2022-10-29T12:20:16.072Z,62.12
2022-10-29T12:22:49.468Z,62.04
2022-10-29T12:25:37.501Z,62.65
2022-10-29T12:28:18.970Z,62.45
2022-10-29T12:30:55.442Z,63.28
2022-10-29T12:33:28.465Z,62.90
2022-10-29T12:38:39.699Z,63.35
2022-10-29T12:41:10.652Z,62.79
2022-10-29T12:43:40.717Z,63.25
2022-10-29T12:46:20.793Z,62.65
2022-10-29T12:48:58.843Z,61.98
2022-10-29T12:51:35.673Z,62.43
2022-10-29T12:54:23.470Z,60.41
2022-10-29T12:56:51.346Z,60.03
2022-10-29T12:59:30.682Z,60.02
2022-10-29T13:02:30.015Z,59.20
2022-10-29T13:05:19.019Z,59.57
2022-10-29T13:08:28.039Z,59.47
2022-10-29T13:10:57.983Z,58.21
2022-10-29T13:13:57.266Z,57.45
2022-10-29T13:16:30.229Z,57.87
2022-10-29T13:19:18.401Z,57.65
2022-10-29T13:21:58.354Z,57.57
2022-10-29T13:24:26.851Z,57.83
2022-10-29T13:26:57.255Z,57.76
2022-10-29T13:29:44.419Z,56.09
2022-10-29T13:32:30.512Z,56.40
2022-10-29T13:34:59.997Z,56.66
2022-10-29T13:37:51.523Z,57.15
2022-10-29T13:40:55.946Z,57.58
2022-10-29T13:43:24.251Z,57.30
2022-10-29T13:46:02.335Z,58.22
2022-10-29T13:48:33.288Z,58.14
2022-10-29T13:51:06.614Z,57.69
2022-10-29T13:53:42.340Z,58.32
2022-10-29T13:56:12.302Z,58.88
2022-10-29T13:58:43.936Z,59.21
2022-10-29T14:01:17.490Z,59.62
2022-10-29T14:04:00.059Z,59.55
2022-10-29T14:06:32.451Z,59.37
2022-10-29T14:09:12.827Z,59.38
2022-10-29T14:11:43.622Z,59.63
2022-10-29T14:14:26.093Z,60.73
2022-10-29T14:17:10.325Z,60.47
2022-10-29T14:19:37.785Z,60.44
2022-10-29T14:22:16.805Z,60.29
2022-10-29T14:24:45.717Z,61.14
2022-10-29T14:27:14.994Z,61.44
2022-10-29T14:29:42.498Z,61.16
2022-10-29T14:32:13.091Z,60.96
2022-10-29T14:34:41.630Z,60.16
2022-10-29T14:37:15.497Z,60.82
2022-10-29T14:39:57.471Z,59.92
2022-10-29T14:42:31.193Z,59.76
2022-10-29T14:45:01.978Z,59.60
2022-10-29T14:47:33.428Z,59.31
2022-10-29T14:50:03.547Z,59.89
2022-10-29T14:52:33.285Z,59.75
2022-10-29T14:55:07.427Z,59.48
2022-10-29T14:57:41.498Z,59.84
2022-10-29T15:00:24.323Z,59.67
2022-10-29T15:02:51.963Z,60.35
2022-10-29T15:05:25.241Z,60.50
2022-10-29T15:07:53.146Z,60.61
2022-10-29T15:10:26.321Z,60.03
2022-10-29T15:12:55.252Z,60.50
2022-10-29T15:15:26.031Z,60.34
2022-10-29T15:17:58.498Z,60.61
2022-10-29T15:20:31.754Z,60.28
2022-10-29T15:23:00.435Z,60.77
2022-10-29T15:25:33.837Z,60.56
2022-10-29T15:28:02.334Z,61.24
2022-10-29T15:30:34.454Z,61.36
2022-10-29T15:33:03.473Z,60.89
2022-10-29T15:35:30.990Z,61.77
2022-10-29T15:37:58.413Z,61.47
2022-10-29T15:40:26.587Z,61.55
2022-10-29T15:42:55.913Z,61.46
2022-10-29T15:45:26.508Z,61.45
2022-10-29T15:47:57.721Z,61.29
2022-10-29T15:50:27.850Z,61.58
2022-10-29T15:52:58.206Z,61.64
2022-10-29T15:55:28.227Z,62.35
2022-10-29T15:58:02.436Z,62.22
2022-10-29T16:00:30.827Z,62.21
2022-10-29T16:03:03.261Z,62.68
2022-10-29T16:05:30.743Z,62.04
2022-10-29T16:08:03.202Z,62.70
2022-10-29T16:10:30.692Z,63.11
2022-10-29T16:13:00.166Z,63.20
2022-10-29T16:18:00.432Z,63.53
2022-10-29T16:20:28.087Z,63.88
2022-10-29T16:22:55.589Z,63.86
2022-10-29T16:25:26.076Z,63.81
2022-10-29T16:27:53.832Z,64.38
2022-10-29T16:30:24.236Z,64.32
2022-10-29T16:32:52.570Z,64.32
2022-10-29T16:35:22.217Z,64.60
2022-10-29T16:37:50.820Z,65.23
2022-10-29T16:40:19.114Z,65.25
2022-10-29T16:42:46.941Z,65.28
2022-10-29T16:45:18.794Z,65.41
2022-10-29T16:47:47.610Z,65.67
2022-10-29T16:50:17.267Z,65.72
2022-10-29T16:52:44.904Z,66.16
2022-10-29T16:55:12.886Z,66.10
2022-10-29T16:57:40.395Z,66.17
2022-10-29T17:00:09.711Z,66.66
2022-10-29T17:02:37.450Z,66.40
2022-10-29T17:05:07.674Z,66.28
2022-10-29T17:07:35.087Z,66.03
2022-10-29T17:10:02.561Z,65.75
2022-10-29T17:12:29.994Z,65.27
2022-10-29T17:14:57.402Z,65.51
2022-10-29T17:17:24.938Z,65.31
2022-10-29T17:19:53.607Z,65.38
2022-10-29T17:22:22.442Z,65.68
2022-10-29T17:24:49.842Z,65.92
2022-10-29T17:27:17.294Z,65.46
2022-10-29T17:29:44.729Z,65.72
2022-10-29T17:32:12.230Z,65.65
2022-10-29T17:34:39.666Z,65.74
2022-10-29T17:37:11.240Z,65.91
2022-10-29T17:39:40.222Z,65.76
2022-10-29T17:42:07.681Z,65.76
2022-10-29T17:44:36.109Z,65.26
2022-10-29T17:47:03.551Z,65.33
2022-10-29T17:49:31.006Z,65.40
2022-10-29T17:51:58.420Z,65.36
2022-10-29T17:54:27.304Z,64.98
2022-10-29T17:56:56.075Z,64.92
2022-10-29T17:59:23.554Z,65.08
2022-10-29T18:01:51.123Z,65.04
2022-10-29T18:04:18.750Z,64.97
2022-10-29T18:06:46.204Z,64.88
2022-10-29T18:09:17.078Z,65.21
2022-10-29T18:11:49.443Z,64.84
2022-10-29T18:14:18.274Z,64.64
2022-10-29T18:16:46.342Z,64.65
2022-10-29T18:19:13.790Z,64.44
2022-10-29T18:21:41.303Z,64.84
2022-10-29T18:24:09.379Z,64.54
2022-10-29T18:26:37.458Z,64.19
2022-10-29T18:29:08.144Z,64.81
2022-10-29T18:31:40.000Z,64.84
2022-10-29T18:34:08.016Z,64.88
2022-10-29T18:36:36.335Z,64.99
2022-10-29T18:39:06.232Z,64.93
2022-10-29T18:41:34.100Z,64.86
2022-10-29T18:44:02.049Z,65.32
2022-10-29T18:46:29.466Z,65.07
2022-10-29T18:48:58.234Z,65.16
2022-10-29T18:51:28.251Z,65.35
2022-10-29T18:53:57.709Z,65.40
2022-10-29T18:56:27.433Z,65.50
2022-10-29T18:58:56.035Z,65.50
2022-10-29T19:01:25.234Z,64.78
2022-10-29T19:03:54.526Z,64.91
2022-10-29T19:06:24.365Z,64.59
2022-10-29T19:08:51.818Z,65.12
2022-10-29T19:11:20.776Z,64.57
2022-10-29T19:13:51.797Z,64.75
2022-10-29T19:16:19.310Z,64.74
2022-10-29T19:18:46.873Z,65.10
2022-10-29T19:21:15.912Z,65.28
2022-10-29T19:23:46.163Z,65.52
2022-10-29T19:26:15.283Z,65.17
2022-10-29T19:28:43.794Z,65.42
2022-10-29T19:31:13.208Z,65.40
2022-10-29T19:33:41.115Z,65.79
2022-10-29T19:36:10.193Z,66.04
2022-10-29T19:38:37.671Z,65.88
2022-10-29T19:41:06.778Z,66.01
2022-10-29T19:43:34.415Z,66.27
2022-10-29T19:46:01.979Z,66.42
2022-10-29T19:48:29.411Z,66.47
2022-10-29T19:50:56.869Z,67.44
2022-10-29T19:53:25.538Z,67.29
2022-10-29T19:55:53.739Z,67.30
2022-10-29T19:58:24.191Z,67.41
2022-10-29T20:00:52.153Z,67.20
2022-10-29T20:03:20.123Z,67.46
2022-10-29T20:05:48.178Z,67.21
2022-10-29T20:08:16.598Z,67.47
2022-10-29T20:10:44.231Z,67.73
2022-10-29T20:13:11.711Z,68.04
2022-10-29T20:15:40.834Z,67.86
2022-10-29T20:18:08.290Z,67.83
2022-10-29T20:20:36.158Z,68.25
2022-10-29T20:23:03.586Z,67.92
2022-10-29T20:25:31.100Z,67.59
2022-10-29T20:27:59.398Z,67.83
2022-10-29T20:30:26.865Z,67.82
2022-10-29T20:32:55.972Z,68.09
2022-10-29T20:35:23.633Z,67.91
2022-10-29T20:37:51.079Z,68.04
2022-10-29T20:40:18.599Z,67.67
2022-10-29T20:42:49.653Z,67.46
2022-10-29T20:45:17.541Z,67.06
2022-10-29T20:47:44.958Z,66.60
2022-10-29T20:50:13.756Z,66.37
2022-10-29T20:52:47.211Z,66.21
2022-10-29T20:55:15.840Z,65.92
2022-10-29T20:57:43.336Z,65.94
2022-10-29T21:00:11.751Z,66.28
2022-10-29T21:02:39.262Z,66.03
2022-10-29T21:05:06.968Z,66.27
2022-10-29T21:07:35.741Z,66.48
2022-10-29T21:10:03.171Z,66.49
2022-10-29T21:12:30.594Z,65.79
2022-10-29T21:14:57.995Z,66.17
2022-10-29T21:17:25.452Z,66.12
2022-10-29T21:19:52.859Z,66.45
2022-10-29T21:22:20.279Z,66.69
2022-10-29T21:24:49.017Z,66.27
2022-10-29T21:27:16.497Z,66.23
2022-10-29T21:29:43.923Z,65.93
2022-10-29T21:32:13.035Z,65.67
2022-10-29T21:34:44.163Z,65.87
2022-10-29T21:37:11.622Z,65.64
2022-10-29T21:39:39.045Z,65.31
2022-10-29T21:42:07.817Z,65.72
2022-10-29T21:44:35.291Z,65.34
2022-10-29T21:47:02.736Z,65.91
2022-10-29T21:49:30.143Z,65.51
2022-10-29T21:51:57.572Z,65.65
2022-10-29T21:54:28.189Z,65.62
2022-10-29T21:56:55.935Z,65.61
2022-10-29T21:59:24.721Z,66.12
2022-10-29T22:01:52.257Z,66.24
2022-10-29T22:04:19.852Z,66.42
2022-10-29T22:06:47.259Z,66.33
2022-10-29T22:09:14.771Z,66.79
2022-10-29T22:11:42.201Z,66.77
2022-10-29T22:14:09.777Z,67.00
2022-10-29T22:16:38.681Z,67.38
2022-10-29T22:19:06.134Z,67.46
2022-10-29T22:21:33.559Z,67.87
2022-10-29T22:24:00.989Z,68.35
2022-10-29T22:26:29.930Z,68.68
2022-10-29T22:28:57.720Z,68.74
2022-10-29T22:31:25.701Z,69.58
2022-10-29T22:33:54.579Z,69.85
2022-10-29T22:36:23.758Z,70.50
2022-10-29T22:38:53.594Z,69.70
2022-10-29T22:41:21.171Z,70.16
2022-10-29T22:43:48.952Z,70.41
2022-10-29T22:46:18.055Z,70.69
2022-10-29T22:48:46.010Z,70.77
2022-10-29T22:51:17.490Z,70.52
2022-10-29T22:53:45.541Z,70.92
2022-10-29T22:56:15.495Z,71.00
2022-10-29T22:58:43.636Z,71.16
2022-10-29T23:01:13.323Z,70.95
2022-10-29T23:03:42.144Z,70.81
2022-10-29T23:06:11.646Z,71.52
2022-10-29T23:08:40.742Z,71.25
2022-10-29T23:11:10.592Z,71.21
2022-10-29T23:13:38.021Z,70.78
2022-10-29T23:16:06.496Z,70.91
2022-10-29T23:18:33.977Z,71.11
2022-10-29T23:21:02.314Z,71.44
2022-10-29T23:23:30.706Z,71.40
2022-10-29T23:26:02.210Z,71.79
2022-10-29T23:28:31.265Z,72.18
2022-10-29T23:31:00.042Z,72.17
2022-10-29T23:33:27.504Z,72.49
2022-10-29T23:35:54.948Z,72.53
2022-10-29T23:38:22.406Z,72.96
2022-10-29T23:40:49.819Z,73.33
2022-10-29T23:43:18.610Z,73.41
2022-10-29T23:45:46.035Z,73.68
2022-10-29T23:48:13.475Z,73.81
2022-10-29T23:50:41.233Z,74.23
2022-10-29T23:53:08.731Z,74.28
2022-10-29T23:55:36.620Z,74.32
2022-10-29T23:58:05.569Z,74.57
